Time;durP1;ratioP1;P1;durP2;ratioP2;P2;SDS_P1;SDS_P2;PMS_P1;PMS_P2;Temp;Humidity;BMP_temperature;BMP_pressure;BME280_temperature;BME280_humidity;BME280_pressure;Samples;Min_cycle;Max_cycle;Signal;HPM_P1;HPM_P2
2023/09/23 00:00:50;;;;;;;2.28;0.50;;;;;;;-141.50;100.00;63355.56;5032286;28;20115;-79
2023/09/23 00:03:16;;;;;;;0.50;0.20;;;;;;;-141.50;100.00;63355.56;5025996;28;20203;-78
2023/09/23 00:05:44;;;;;;;0.63;0.30;;;;;;;-141.50;100.00;63355.56;5031090;28;20055;-79
2023/09/23 00:08:11;;;;;;;0.73;0.40;;;;;;;-141.50;100.00;63355.56;5030605;28;20049;-80
2023/09/23 00:10:38;;;;;;;1.48;0.65;;;;;;;-141.50;100.00;63355.56;5032626;28;20049;-79
2023/09/23 00:13:06;;;;;;;2.70;0.28;;;;;;;-141.50;100.00;63355.56;5030702;28;20046;-79
2023/09/23 00:15:34;;;;;;;1.08;0.32;;;;;;;-141.50;100.00;63355.56;5032716;28;20046;-78
2023/09/23 00:18:02;;;;;;;0.88;0.40;;;;;;;-141.50;100.00;63355.56;5031242;28;20042;-79
2023/09/23 00:20:29;;;;;;;0.38;0.20;;;;;;;-141.50;100.00;63355.56;5030390;28;20301;-79
2023/09/23 00:22:56;;;;;;;0.50;0.40;;;;;;;-141.50;100.00;63355.56;5032406;28;20065;-80
2023/09/23 00:25:23;;;;;;;1.52;0.55;;;;;;;-141.50;100.00;63355.56;5033622;28;20045;-79
2023/09/23 00:27:54;;;;;;;0.63;0.40;;;;;;;-141.50;100.00;63355.56;5033308;28;20041;-79
2023/09/23 00:30:26;;;;;;;3.95;0.38;;;;;;;-141.50;100.00;63355.56;5026658;28;20049;-81
2023/09/23 00:32:53;;;;;;;0.85;0.45;;;;;;;-141.50;100.00;63355.56;5031595;28;20046;-80
2023/09/23 00:35:20;;;;;;;1.10;0.40;;;;;;;-141.50;100.00;63355.56;5031937;28;20048;-80
2023/09/23 00:37:49;;;;;;;0.38;0.20;;;;;;;-141.50;100.00;63355.56;5031136;28;20057;-79
2023/09/23 00:40:38;;;;;;;1.02;0.40;;;;;;;-141.50;100.00;63355.56;5031681;28;20048;-79
2023/09/23 00:43:06;;;;;;;1.40;0.32;;;;;;;-141.50;100.00;63355.56;5030300;28;20428;-80
2023/09/23 00:45:34;;;;;;;0.77;0.30;;;;;;;-141.50;100.00;63355.56;5029801;28;20110;-80
2023/09/23 00:48:01;;;;;;;0.55;0.32;;;;;;;-141.50;100.00;63355.56;5032309;28;20050;-80
2023/09/23 00:50:29;;;;;;;1.38;0.35;;;;;;;-141.50;100.00;63355.56;5031476;28;20052;-79
2023/09/23 00:52:58;;;;;;;0.70;0.30;;;;;;;-141.50;100.00;63355.56;5033545;28;20053;-78
2023/09/23 00:55:28;;;;;;;0.17;0.17;;;;;;;-141.50;100.00;63355.56;5016879;28;20045;-80
2023/09/23 00:58:00;;;;;;;0.65;0.30;;;;;;;-141.50;100.00;63355.56;5034447;28;20526;-79
2023/09/23 01:00:30;;;;;;;1.60;0.40;;;;;;;-141.50;100.00;63355.56;5016735;28;20042;-78
2023/09/23 01:02:59;;;;;;;1.23;0.40;;;;;;;-141.50;100.00;63355.56;5028104;28;20049;-80
2023/09/23 01:05:29;;;;;;;0.30;0.30;;;;;;;-141.50;100.00;63355.56;5032269;28;20419;-79
2023/09/23 01:08:00;;;;;;;0.80;0.40;;;;;;;-141.50;100.00;63355.56;5029194;28;20045;-79
2023/09/23 01:10:28;;;;;;;1.50;0.50;;;;;;;-141.50;100.00;63355.56;5032001;28;20084;-79
2023/09/23 01:12:56;;;;;;;0.32;0.30;;;;;;;-141.50;100.00;63355.56;5030095;28;20048;-79
2023/09/23 01:15:27;;;;;;;0.57;0.30;;;;;;;-141.50;100.00;63355.56;5030801;28;20045;-79
2023/09/23 01:17:57;;;;;;;0.70;0.40;;;;;;;-141.50;100.00;63355.56;5034340;28;20052;-80
2023/09/23 01:20:25;;;;;;;0.93;0.40;;;;;;;-141.50;100.00;63355.56;5027382;28;20042;-79
2023/09/23 01:22:54;;;;;;;0.40;0.30;;;;;;;-141.50;100.00;63355.56;5013363;28;20115;-79
2023/09/23 01:25:22;;;;;;;0.75;0.47;;;;;;;-141.50;100.00;63355.56;5031675;28;20045;-79
2023/09/23 01:27:49;;;;;;;0.63;0.30;;;;;;;-141.50;100.00;63355.56;5030775;28;20046;-80
2023/09/23 01:30:16;;;;;;;1.88;0.38;;;;;;;-141.50;100.00;63355.56;5030859;28;20034;-80
2023/09/23 01:32:47;;;;;;;3.05;0.50;;;;;;;-141.50;100.00;63355.56;5029845;28;20046;-80
2023/09/23 01:35:16;;;;;;;0.77;0.50;;;;;;;-141.50;100.00;63355.56;5030393;28;20037;-79
2023/09/23 01:37:45;;;;;;;0.52;0.30;;;;;;;-141.50;100.00;63355.56;5031632;28;20046;-80
2023/09/23 01:40:17;;;;;;;0.63;0.50;;;;;;;-141.50;100.00;63355.56;5027997;28;20053;-80
2023/09/23 01:42:49;;;;;;;0.60;0.30;;;;;;;-141.50;100.00;63355.56;5045662;28;20103;-81
2023/09/23 01:45:19;;;;;;;0.63;0.45;;;;;;;-141.50;100.00;63355.56;5029715;28;20061;-78
2023/09/23 01:47:46;;;;;;;1.60;0.60;;;;;;;-141.50;100.00;63355.56;5031064;28;20419;-78
2023/09/23 01:50:13;;;;;;;1.85;0.38;;;;;;;-141.50;100.00;63355.56;5028339;28;20045;-79
2023/09/23 01:52:40;;;;;;;0.50;0.40;;;;;;;-141.50;100.00;63355.56;5029511;28;20507;-78
2023/09/23 01:55:10;;;;;;;5.03;0.50;;;;;;;-141.50;100.00;63355.56;5030020;28;20058;-76
2023/09/23 01:57:40;;;;;;;1.25;0.52;;;;;;;-141.50;100.00;63355.56;5013319;28;20037;-79
2023/09/23 02:00:14;;;;;;;1.08;0.50;;;;;;;-141.50;100.00;63355.56;5030180;28;20115;-78
2023/09/23 02:02:43;;;;;;;1.58;0.55;;;;;;;-141.50;100.00;63355.56;5029505;28;20057;-78
2023/09/23 02:05:10;;;;;;;1.02;0.57;;;;;;;-141.50;100.00;63355.56;5026884;28;20046;-79
2023/09/23 02:07:39;;;;;;;1.83;0.50;;;;;;;-141.50;100.00;63355.56;5029804;28;20071;-79
2023/09/23 02:10:08;;;;;;;0.95;0.40;;;;;;;-141.50;100.00;63355.56;5029997;28;20045;-78
2023/09/23 02:12:35;;;;;;;0.80;0.40;;;;;;;-141.50;100.00;63355.56;5032270;28;20083;-80
2023/09/23 02:15:04;;;;;;;1.05;0.52;;;;;;;-141.50;100.00;63355.56;5031779;28;20116;-80
2023/09/23 02:17:30;;;;;;;2.25;0.50;;;;;;;-141.50;100.00;63355.56;5031494;28;20041;-80
2023/09/23 02:19:57;;;;;;;1.63;0.55;;;;;;;-141.50;100.00;63355.56;5025603;28;20046;-79
2023/09/23 02:22:24;;;;;;;2.00;0.63;;;;;;;-141.50;100.00;63355.56;5029168;28;20049;-78
2023/09/23 02:24:51;;;;;;;1.38;0.45;;;;;;;-141.50;100.00;63355.56;5046197;28;20041;-80
2023/09/23 02:27:17;;;;;;;0.65;0.30;;;;;;;-141.50;100.00;63355.56;5028679;28;20068;-80
2023/09/23 02:29:45;;;;;;;1.30;0.40;;;;;;;-141.50;100.00;63355.56;5028982;28;20107;-81
2023/09/23 02:32:12;;;;;;;1.45;0.60;;;;;;;-141.50;100.00;63355.56;5028982;28;20292;-79
2023/09/23 02:34:39;;;;;;;1.48;0.70;;;;;;;-141.50;100.00;63355.56;5026501;28;20072;-79
2023/09/23 02:37:06;;;;;;;1.25;0.50;;;;;;;-141.50;100.00;63355.56;5029255;28;20053;-79
2023/09/23 02:39:33;;;;;;;0.63;0.40;;;;;;;-141.50;100.00;63355.56;5026641;28;20064;-79
2023/09/23 02:42:00;;;;;;;1.08;0.40;;;;;;;-141.50;100.00;63355.56;5045194;28;20117;-80
2023/09/23 02:44:30;;;;;;;0.85;0.40;;;;;;;-141.50;100.00;63355.56;5026348;28;20582;-79
2023/09/23 02:46:56;;;;;;;1.55;0.40;;;;;;;-141.50;100.00;63355.56;5029667;28;20044;-79
2023/09/23 02:49:23;;;;;;;0.85;0.45;;;;;;;-141.50;100.00;63355.56;5043922;28;20073;-79
2023/09/23 02:51:50;;;;;;;0.65;0.38;;;;;;;-141.50;100.00;63355.56;5028277;28;20049;-78
2023/09/23 02:54:17;;;;;;;2.08;0.43;;;;;;;-141.50;100.00;63355.56;5027240;28;20042;-78
2023/09/23 02:56:47;;;;;;;0.77;0.30;;;;;;;-141.50;100.00;63355.56;5030231;28;20053;-79
2023/09/23 02:59:15;;;;;;;1.98;0.43;;;;;;;-141.50;100.00;63355.56;5028694;28;20079;-78
2023/09/23 03:01:51;;;;;;;1.15;0.40;;;;;;;-141.50;100.00;63355.56;5029270;28;20568;-80
2023/09/23 03:04:23;;;;;;;2.40;0.30;;;;;;;-141.50;100.00;63355.56;5024326;28;20069;-80
2023/09/23 03:06:59;;;;;;;3.42;0.50;;;;;;;-141.50;100.00;63355.56;4995093;28;20529;-80
2023/09/23 03:09:32;;;;;;;0.40;0.30;;;;;;;-141.50;100.00;63355.56;5038135;28;21349;-79
2023/09/23 03:12:00;;;;;;;1.70;0.50;;;;;;;-141.50;100.00;63355.56;5031762;28;20065;-80
2023/09/23 03:14:42;;;;;;;1.27;0.52;;;;;;;-141.50;100.00;63355.56;5029090;28;20634;-80
2023/09/23 03:17:12;;;;;;;0.63;0.40;;;;;;;-141.50;100.00;63355.56;5026417;28;20409;-80
2023/09/23 03:19:39;;;;;;;1.08;0.50;;;;;;;-141.50;100.00;63355.56;5027420;28;20045;-79
2023/09/23 03:22:07;;;;;;;0.38;0.30;;;;;;;-141.50;100.00;63355.56;5028546;28;20053;-80
2023/09/23 03:24:34;;;;;;;0.60;0.35;;;;;;;-141.50;100.00;63355.56;5029515;28;20521;-80
2023/09/23 03:27:02;;;;;;;1.25;0.30;;;;;;;-141.50;100.00;63355.56;5028343;28;20107;-80
2023/09/23 03:29:30;;;;;;;0.30;0.30;;;;;;;-141.50;100.00;63355.56;5012385;28;20616;-79
2023/09/23 03:31:59;;;;;;;0.80;0.50;;;;;;;-141.50;100.00;63355.56;5011056;28;23124;-79
2023/09/23 03:34:26;;;;;;;2.85;0.47;;;;;;;-141.50;100.00;63355.56;5037956;28;20060;-78
2023/09/23 03:36:58;;;;;;;0.47;0.30;;;;;;;-141.50;100.00;63355.56;5040948;28;20060;-80
2023/09/23 03:39:26;;;;;;;0.90;0.43;;;;;;;-141.50;100.00;63355.56;5050616;28;20041;-77
2023/09/23 03:41:55;;;;;;;1.20;0.60;;;;;;;-141.50;100.00;63355.56;5034306;28;20050;-77
2023/09/23 03:44:21;;;;;;;0.73;0.40;;;;;;;-141.50;100.00;63355.56;5040198;28;20099;-77
2023/09/23 03:46:50;;;;;;;2.00;0.40;;;;;;;-141.50;100.00;63355.56;5039710;28;20116;-78
2023/09/23 03:49:20;;;;;;;0.80;0.40;;;;;;;-141.50;100.00;63355.56;5036196;28;20046;-79
2023/09/23 03:51:47;;;;;;;0.85;0.40;;;;;;;-141.50;100.00;63355.56;5026991;28;20053;-79
2023/09/23 03:54:15;;;;;;;0.90;0.50;;;;;;;-141.50;100.00;63355.56;5026006;28;20104;-80
2023/09/23 03:56:41;;;;;;;1.45;0.45;;;;;;;-141.50;100.00;63355.56;5026921;28;20403;-80
2023/09/23 03:59:08;;;;;;;0.35;0.28;;;;;;;-141.50;100.00;63355.56;5028012;28;20423;-80
2023/09/23 04:01:39;;;;;;;0.47;0.35;;;;;;;-141.50;100.00;63355.56;5009866;28;20071;-80
2023/09/23 04:04:10;;;;;;;0.55;0.35;;;;;;;-141.50;100.00;63355.56;5025676;28;20042;-79
2023/09/23 04:06:37;;;;;;;2.25;0.50;;;;;;;-141.50;100.00;63355.56;5027106;28;20088;-78
2023/09/23 04:09:09;;;;;;;0.38;0.20;;;;;;;-141.50;100.00;63355.56;5028747;28;20041;-80
2023/09/23 04:11:36;;;;;;;1.05;0.45;;;;;;;-141.50;100.00;63355.56;5042682;28;20351;-80
2023/09/23 04:14:03;;;;;;;2.00;0.40;;;;;;;-141.50;100.00;63355.56;5029430;28;20038;-78
2023/09/23 04:16:30;;;;;;;0.88;0.40;;;;;;;-141.50;100.00;63355.56;5028648;28;20099;-78
2023/09/23 04:18:57;;;;;;;0.52;0.40;;;;;;;-141.50;100.00;63355.56;5025051;28;20053;-78
2023/09/23 04:21:25;;;;;;;1.67;0.30;;;;;;;-141.50;100.00;63355.56;5028061;28;20423;-78
2023/09/23 04:23:54;;;;;;;2.50;0.40;;;;;;;-141.50;100.00;63355.56;5025980;28;20072;-80
2023/09/23 04:26:21;;;;;;;0.70;0.40;;;;;;;-141.50;100.00;63355.56;5026610;28;20103;-79
2023/09/23 04:28:52;;;;;;;0.95;0.50;;;;;;;-141.50;100.00;63355.56;5031163;28;20057;-79
2023/09/23 04:31:19;;;;;;;2.47;0.52;;;;;;;-141.50;100.00;63355.56;5030813;28;20050;-79
2023/09/23 04:33:47;;;;;;;2.80;0.43;;;;;;;-141.50;100.00;63355.56;5028821;28;20484;-79
2023/09/23 04:36:14;;;;;;;1.67;0.73;;;;;;;-141.50;100.00;63355.56;5047330;28;20061;-79
2023/09/23 04:38:43;;;;;;;0.95;0.47;;;;;;;-141.50;100.00;63355.56;5028124;28;20038;-80
2023/09/23 04:41:10;;;;;;;1.83;0.50;;;;;;;-141.50;100.00;63355.56;5031391;28;20053;-79
2023/09/23 04:43:39;;;;;;;1.05;0.40;;;;;;;-141.50;100.00;63355.56;5015424;28;20045;-80
2023/09/23 04:46:06;;;;;;;1.08;0.40;;;;;;;-141.50;100.00;63355.56;5030980;28;21812;-79
2023/09/23 04:48:33;;;;;;;2.20;0.60;;;;;;;-141.50;100.00;63355.56;5030787;28;20049;-77
2023/09/23 04:51:00;;;;;;;0.70;0.50;;;;;;;-141.50;100.00;63355.56;5031508;28;20070;-80
2023/09/23 04:53:28;;;;;;;2.55;0.50;;;;;;;-141.50;100.00;63355.56;5030453;28;20077;-79
2023/09/23 04:55:55;;;;;;;2.55;0.55;;;;;;;-141.50;100.00;63355.56;5038843;28;20033;-77
2023/09/23 04:58:23;;;;;;;0.80;0.40;;;;;;;-141.50;100.00;63355.56;5031900;28;20045;-80
2023/09/23 05:00:51;;;;;;;1.27;0.50;;;;;;;-141.50;100.00;63355.56;5026806;28;20052;-77
2023/09/23 05:03:19;;;;;;;1.98;0.40;;;;;;;-141.50;100.00;63355.56;5027563;28;20045;-78
2023/09/23 05:05:46;;;;;;;1.45;0.50;;;;;;;-141.50;100.00;63355.56;5023075;28;20060;-78
2023/09/23 05:08:13;;;;;;;0.40;0.30;;;;;;;-141.50;100.00;63355.56;5002769;28;20041;-79
2023/09/23 05:10:41;;;;;;;0.75;0.40;;;;;;;-141.50;100.00;63355.56;5021244;28;20049;-78
2023/09/23 05:13:09;;;;;;;4.93;0.70;;;;;;;-141.50;100.00;63355.56;5026785;28;20784;-79
2023/09/23 05:15:36;;;;;;;0.60;0.40;;;;;;;-141.50;100.00;63355.56;5025723;28;20107;-80
2023/09/23 05:18:03;;;;;;;0.90;0.40;;;;;;;-141.50;100.00;63355.56;5026167;28;20125;-78
2023/09/23 05:20:30;;;;;;;0.60;0.30;;;;;;;-141.50;100.00;63355.56;5026211;28;20057;-79
2023/09/23 05:23:01;;;;;;;1.15;0.35;;;;;;;-141.50;100.00;63355.56;5002269;28;20056;-75
2023/09/23 05:25:28;;;;;;;0.80;0.50;;;;;;;-141.50;100.00;63355.56;5019922;28;20046;-75
2023/09/23 05:27:56;;;;;;;2.13;0.65;;;;;;;-141.50;100.00;63355.56;5013481;28;20124;-75
2023/09/23 05:30:26;;;;;;;1.55;0.80;;;;;;;-141.50;100.00;63355.56;5017007;28;20385;-78
2023/09/23 05:32:53;;;;;;;0.65;0.38;;;;;;;-141.50;100.00;63355.56;5024482;28;20498;-78
2023/09/23 05:35:20;;;;;;;1.08;0.30;;;;;;;-141.50;100.00;63355.56;5024329;28;20088;-79
2023/09/23 05:37:51;;;;;;;1.45;0.38;;;;;;;-141.50;100.00;63355.56;5018572;28;20045;-78
2023/09/23 05:42:47;;;;;;;1.13;0.40;;;;;;;-141.50;100.00;63355.56;5017372;28;20773;-78
2023/09/23 05:45:15;;;;;;;0.98;0.40;;;;;;;-141.50;100.00;63355.56;5021029;28;20076;-79
2023/09/23 05:47:41;;;;;;;0.30;0.28;;;;;;;-141.50;100.00;63355.56;5005141;28;20237;-81
2023/09/23 05:50:09;;;;;;;1.52;0.50;;;;;;;-141.50;100.00;63355.56;5018438;28;20547;-79
2023/09/23 05:52:39;;;;;;;1.10;0.30;;;;;;;-141.50;100.00;63355.56;5018423;28;20054;-78
2023/09/23 05:55:07;;;;;;;0.50;0.30;;;;;;;-141.50;100.00;63355.56;5005131;28;20046;-79
2023/09/23 05:57:38;;;;;;;0.70;0.40;;;;;;;-141.50;100.00;63355.56;5021625;28;20468;-80
2023/09/23 06:00:10;;;;;;;1.10;0.40;;;;;;;-141.50;100.00;63355.56;5024958;28;20046;-79
2023/09/23 06:02:38;;;;;;;0.50;0.20;;;;;;;-141.50;100.00;63355.56;5024654;28;20048;-79
2023/09/23 06:05:05;;;;;;;0.90;0.25;;;;;;;-141.50;100.00;63355.56;5023962;28;20045;-79
2023/09/23 06:07:32;;;;;;;1.75;0.30;;;;;;;-141.50;100.00;63355.56;5023510;28;20049;-79
2023/09/23 06:09:59;;;;;;;0.22;0.20;;;;;;;-141.50;100.00;63355.56;5021090;28;20055;-80
2023/09/23 06:12:29;;;;;;;0.60;0.30;;;;;;;-141.50;100.00;63355.56;5020175;28;20045;-80
2023/09/23 06:15:00;;;;;;;0.38;0.20;;;;;;;-141.50;100.00;63355.56;5023613;28;20042;-80
2023/09/23 06:17:28;;;;;;;0.40;0.20;;;;;;;-141.50;100.00;63355.56;5024441;28;20060;-80
2023/09/23 06:19:56;;;;;;;1.20;0.22;;;;;;;-141.50;100.00;63355.56;5021599;28;20103;-79
2023/09/23 06:22:23;;;;;;;0.28;0.20;;;;;;;-141.50;100.00;63355.56;5020151;28;20049;-79
2023/09/23 06:24:51;;;;;;;2.90;0.28;;;;;;;-141.50;100.00;63355.56;5022805;28;20045;-78
2023/09/23 06:27:18;;;;;;;0.43;0.20;;;;;;;-141.50;100.00;63355.56;5021903;28;20358;-79
2023/09/23 06:29:46;;;;;;;5.32;0.32;;;;;;;-141.50;100.00;63355.56;5003985;28;20538;-79
2023/09/23 06:32:12;;;;;;;0.20;0.13;;;;;;;-141.50;100.00;63355.56;5021376;28;20057;-77
2023/09/23 06:34:39;;;;;;;1.13;0.30;;;;;;;-141.50;100.00;63355.56;5024267;28;20260;-79
2023/09/23 06:37:06;;;;;;;0.40;0.20;;;;;;;-141.50;100.00;63355.56;5039352;28;20049;-79
2023/09/23 06:39:33;;;;;;;0.30;0.30;;;;;;;-141.50;100.00;63355.56;5039171;28;20051;-79
2023/09/23 06:42:00;;;;;;;0.70;0.25;;;;;;;-141.50;100.00;63355.56;5021343;28;20316;-78
2023/09/23 06:44:26;;;;;;;1.80;0.30;;;;;;;-141.50;100.00;63355.56;5027586;28;20571;-80
2023/09/23 06:46:53;;;;;;;0.73;0.30;;;;;;;-141.50;100.00;63355.56;5037698;28;20045;-79
2023/09/23 06:49:20;;;;;;;0.43;0.15;;;;;;;-141.50;100.00;63355.56;5027620;28;20622;-81
2023/09/23 06:51:48;;;;;;;0.35;0.20;;;;;;;-141.50;100.00;63355.56;5020117;28;20045;-82
2023/09/23 06:54:14;;;;;;;0.43;0.20;;;;;;;-141.50;100.00;63355.56;5020595;28;20049;-81
2023/09/23 06:56:41;;;;;;;1.60;0.30;;;;;;;-141.50;100.00;63355.56;5018448;28;20583;-80
2023/09/23 06:59:08;;;;;;;0.50;0.30;;;;;;;-141.50;100.00;63355.56;5005981;28;20053;-80
2023/09/23 07:01:35;;;;;;;1.50;0.40;;;;;;;-141.50;100.00;63355.56;5023933;28;20045;-79
2023/09/23 07:04:02;;;;;;;0.73;0.20;;;;;;;-141.50;100.00;63355.56;5026969;28;20045;-80
2023/09/23 07:06:29;;;;;;;0.75;0.40;;;;;;;-141.50;100.00;63355.56;5026018;28;20052;-79
2023/09/23 07:08:56;;;;;;;0.30;0.10;;;;;;;-141.50;100.00;63355.56;5023514;28;20072;-79
2023/09/23 07:11:23;;;;;;;1.08;0.38;;;;;;;-141.50;100.00;63355.56;5016984;28;20041;-80
2023/09/23 07:13:50;;;;;;;2.45;0.30;;;;;;;-141.50;100.00;63355.56;5017924;28;20045;-79
2023/09/23 07:16:17;;;;;;;0.57;0.38;;;;;;;-141.50;100.00;63355.56;5023686;28;20562;-79
2023/09/23 07:18:44;;;;;;;0.40;0.25;;;;;;;-141.50;100.00;63355.56;5021634;28;20466;-79
2023/09/23 07:21:11;;;;;;;0.82;0.30;;;;;;;-141.50;100.00;63355.56;5023422;28;20045;-79
2023/09/23 07:23:39;;;;;;;1.05;0.50;;;;;;;-141.50;100.00;63355.56;5037304;28;20038;-78
2023/09/23 07:26:06;;;;;;;0.50;0.28;;;;;;;-141.50;100.00;63355.56;5021928;28;20071;-81
2023/09/23 07:28:33;;;;;;;1.63;0.30;;;;;;;-141.50;100.00;63355.56;5007807;28;20041;-80
2023/09/23 07:31:00;;;;;;;1.00;0.40;;;;;;;-141.50;100.00;63355.56;5000992;28;20200;-81
2023/09/23 07:33:27;;;;;;;1.42;0.30;;;;;;;-141.50;100.00;63355.56;5021067;28;20554;-78
2023/09/23 07:35:54;;;;;;;1.63;0.30;;;;;;;-141.50;100.00;63355.56;5026722;28;20299;-78
2023/09/23 07:38:21;;;;;;;0.40;0.30;;;;;;;-141.50;100.00;63355.56;5030945;28;20056;-79
2023/09/23 07:40:49;;;;;;;1.13;0.22;;;;;;;-141.50;100.00;63355.56;5038767;28;20044;-79
2023/09/23 07:43:16;;;;;;;0.52;0.28;;;;;;;-141.50;100.00;63355.56;5043143;28;20050;-78
2023/09/23 07:45:43;;;;;;;0.45;0.30;;;;;;;-141.50;100.00;63355.56;5042481;28;20096;-78
2023/09/23 07:48:09;;;;;;;0.85;0.40;;;;;;;-141.50;100.00;63355.56;5046007;28;20073;-78
2023/09/23 07:50:36;;;;;;;0.82;0.55;;;;;;;-141.50;100.00;63355.56;5044575;28;20087;-80
2023/09/23 07:53:03;;;;;;;0.47;0.30;;;;;;;-141.50;100.00;63355.56;5028527;28;20632;-79
2023/09/23 07:55:30;;;;;;;0.40;0.30;;;;;;;-141.50;100.00;63355.56;5044320;28;20033;-79
2023/09/23 07:57:57;;;;;;;0.68;0.22;;;;;;;-141.50;100.00;63355.56;5026675;28;20045;-77
2023/09/23 08:00:24;;;;;;;1.08;0.30;;;;;;;-141.50;100.00;63355.56;5027599;28;20026;-78
2023/09/23 08:02:54;;;;;;;0.30;0.20;;;;;;;-141.50;100.00;63355.56;5058299;28;20068;-80
2023/09/23 08:05:25;;;;;;;0.85;0.38;;;;;;;-141.50;100.00;63355.56;5016228;28;20053;-79
2023/09/23 08:07:52;;;;;;;3.08;0.30;;;;;;;-141.50;100.00;63355.56;5029107;28;20049;-78
2023/09/23 08:10:20;;;;;;;0.63;0.40;;;;;;;-141.50;100.00;63355.56;5012191;28;20057;-79
2023/09/23 08:12:47;;;;;;;0.45;0.30;;;;;;;-141.50;100.00;63355.56;5027348;28;20049;-79
2023/09/23 08:15:14;;;;;;;1.17;0.55;;;;;;;-141.50;100.00;63355.56;5029161;28;20073;-79
2023/09/23 08:17:40;;;;;;;0.68;0.30;;;;;;;-141.50;100.00;63355.56;5042727;28;20427;-79
2023/09/23 08:20:21;;;;;;;2.13;0.40;;;;;;;-141.50;100.00;63355.56;5026903;28;20049;-79
2023/09/23 08:22:48;;;;;;;0.68;0.40;;;;;;;-141.50;100.00;63355.56;5026017;28;20044;-78
2023/09/23 08:25:17;;;;;;;0.60;0.30;;;;;;;-141.50;100.00;63355.56;5009883;28;20054;-79
2023/09/23 08:27:45;;;;;;;0.73;0.47;;;;;;;-141.50;100.00;63355.56;5028043;28;20078;-79
2023/09/23 08:30:15;;;;;;;3.15;0.52;;;;;;;-141.50;100.00;63355.56;5029596;28;20547;-79
2023/09/23 08:32:42;;;;;;;0.47;0.30;;;;;;;-141.50;100.00;63355.56;5044810;28;20050;-80
2023/09/23 08:35:09;;;;;;;1.40;0.35;;;;;;;-141.50;100.00;63355.56;5026791;28;20103;-81
2023/09/23 08:37:36;;;;;;;0.57;0.20;;;;;;;-141.50;100.00;63355.56;5029937;28;20523;-80
2023/09/23 08:40:10;;;;;;;1.55;0.30;;;;;;;-141.50;100.00;63355.56;5030454;28;20042;-80
2023/09/23 08:42:38;;;;;;;0.38;0.30;;;;;;;-141.50;100.00;63355.56;5038903;28;20270;-79
2023/09/23 08:45:09;;;;;;;0.93;0.50;;;;;;;-141.50;100.00;63355.56;5012004;28;20048;-80
2023/09/23 08:47:37;;;;;;;0.40;0.30;;;;;;;-141.50;100.00;63355.56;5025831;28;20049;-80
2023/09/23 08:50:11;;;;;;;0.90;0.30;;;;;;;-141.50;100.00;63355.56;5039353;28;20041;-80
2023/09/23 08:52:38;;;;;;;0.93;0.30;;;;;;;-141.50;100.00;63355.56;5022468;28;20539;-78
2023/09/23 08:55:07;;;;;;;0.40;0.20;;;;;;;-141.50;100.00;63355.56;5025782;28;20339;-79
2023/09/23 08:57:34;;;;;;;0.52;0.30;;;;;;;-141.50;100.00;63355.56;5010315;28;20041;-80
2023/09/23 09:00:06;;;;;;;0.32;0.30;;;;;;;-141.50;100.00;63355.56;5022244;28;20041;-79
2023/09/23 09:02:33;;;;;;;0.60;0.30;;;;;;;-141.50;100.00;63355.56;5027855;28;20579;-80
2023/09/23 09:05:00;;;;;;;0.60;0.43;;;;;;;-141.50;100.00;63355.56;5022675;28;20045;-76
2023/09/23 09:07:38;;;;;;;0.57;0.30;;;;;;;-141.50;100.00;63355.56;5021962;28;20072;-75
2023/09/23 09:10:05;;;;;;;0.80;0.45;;;;;;;-141.50;100.00;63355.56;5021946;28;20124;-77
2023/09/23 09:12:33;;;;;;;3.42;0.28;;;;;;;-141.50;100.00;63355.56;5023382;28;20128;-76
2023/09/23 09:15:00;;;;;;;0.98;0.50;;;;;;;-141.50;100.00;63355.56;5005044;28;20053;-77
2023/09/23 09:17:27;;;;;;;0.50;0.30;;;;;;;-141.50;100.00;63355.56;5022696;28;20045;-77
2023/09/23 09:19:54;;;;;;;0.50;0.30;;;;;;;-141.50;100.00;63355.56;5017284;28;20063;-76
2023/09/23 09:22:21;;;;;;;1.55;0.47;;;;;;;-141.50;100.00;63355.56;5017322;28;20042;-77
2023/09/23 09:24:48;;;;;;;0.88;0.35;;;;;;;-141.50;100.00;63355.56;5022893;28;20049;-77
2023/09/23 09:27:15;;;;;;;0.40;0.30;;;;;;;-141.50;100.00;63355.56;5023424;28;20060;-76
2023/09/23 09:29:43;;;;;;;0.60;0.38;;;;;;;-141.50;100.00;63355.56;5020931;28;20592;-77
2023/09/23 09:32:11;;;;;;;4.05;0.43;;;;;;;-141.50;100.00;63355.56;5023003;28;20055;-77
2023/09/23 09:34:46;;;;;;;1.25;0.40;;;;;;;-141.50;100.00;63355.56;5020624;28;21874;-77
2023/09/23 09:37:14;;;;;;;0.93;0.40;;;;;;;-141.50;100.00;63355.56;5023113;28;20598;-76
2023/09/23 09:39:55;;;;;;;0.70;0.30;;;;;;;-141.50;100.00;63355.56;5016839;28;20052;-76
2023/09/23 09:42:30;;;;;;;1.58;0.32;;;;;;;-141.50;100.00;63355.56;5011799;28;20092;-76
2023/09/23 09:44:57;;;;;;;0.82;0.30;;;;;;;-141.50;100.00;63355.56;5020484;28;20053;-76
2023/09/23 09:47:27;;;;;;;0.85;0.30;;;;;;;-141.50;100.00;63355.56;5024533;28;20227;-78
2023/09/23 09:49:54;;;;;;;0.55;0.30;;;;;;;-141.50;100.00;63355.56;5013726;28;20049;-78
2023/09/23 09:52:24;;;;;;;0.80;0.30;;;;;;;-141.50;100.00;63355.56;5040532;28;20053;-78
2023/09/23 09:54:53;;;;;;;0.82;0.40;;;;;;;-141.50;100.00;63355.56;5027043;28;20133;-78
2023/09/23 09:57:22;;;;;;;0.95;0.40;;;;;;;-141.50;100.00;63355.56;5024610;28;20478;-75
2023/09/23 09:59:52;;;;;;;0.60;0.38;;;;;;;-141.50;100.00;63355.56;5029112;28;20107;-76
2023/09/23 10:02:23;;;;;;;2.33;0.38;;;;;;;-141.50;100.00;63355.56;5040011;28;20053;-76
2023/09/23 10:04:53;;;;;;;0.30;0.20;;;;;;;-141.50;100.00;63355.56;5023414;28;20566;-76
2023/09/23 10:07:22;;;;;;;1.00;0.40;;;;;;;-141.50;100.00;63355.56;5039689;28;20065;-76
2023/09/23 10:09:55;;;;;;;0.80;0.30;;;;;;;-141.50;100.00;63355.56;5006160;28;20109;-76
2023/09/23 10:12:25;;;;;;;0.93;0.30;;;;;;;-141.50;100.00;63355.56;5022952;28;20053;-76
2023/09/23 10:14:56;;;;;;;0.45;0.30;;;;;;;-141.50;100.00;63355.56;5022233;28;20045;-76
2023/09/23 10:17:31;;;;;;;0.40;0.20;;;;;;;-141.50;100.00;63355.56;5034368;28;20124;-75
2023/09/23 10:19:58;;;;;;;2.25;0.40;;;;;;;-141.50;100.00;63355.56;5035369;28;20076;-75
2023/09/23 10:22:28;;;;;;;0.30;0.25;;;;;;;-141.50;100.00;63355.56;5016214;28;20080;-76
2023/09/23 10:25:05;;;;;;;2.17;0.55;;;;;;;-141.50;100.00;63355.56;5015085;28;20621;-75
2023/09/23 10:27:36;;;;;;;1.33;0.52;;;;;;;-141.50;100.00;63355.56;5020195;28;20055;-75
2023/09/23 10:30:04;;;;;;;1.35;0.32;;;;;;;-141.50;100.00;63355.56;5004138;28;20167;-77
2023/09/23 10:32:32;;;;;;;0.80;0.35;;;;;;;-141.50;100.00;63355.56;5006514;28;20099;-77
2023/09/23 10:35:00;;;;;;;1.85;0.40;;;;;;;-141.50;100.00;63355.56;5022043;28;20045;-78
2023/09/23 10:37:26;;;;;;;1.55;0.47;;;;;;;-141.50;100.00;63355.56;5023799;28;20557;-78
2023/09/23 10:39:53;;;;;;;0.60;0.30;;;;;;;-141.50;100.00;63355.56;5017061;28;20138;-77
2023/09/23 10:42:20;;;;;;;1.30;0.40;;;;;;;-141.50;100.00;63355.56;5015281;28;20049;-78
2023/09/23 10:44:47;;;;;;;1.48;0.47;;;;;;;-141.50;100.00;63355.56;5019126;28;20053;-79
2023/09/23 10:47:14;;;;;;;3.88;0.47;;;;;;;-141.50;100.00;63355.56;4990484;28;20097;-80
2023/09/23 10:49:42;;;;;;;0.63;0.40;;;;;;;-141.50;100.00;63355.56;5025388;28;20048;-79
2023/09/23 10:52:10;;;;;;;0.32;0.30;;;;;;;-141.50;100.00;63355.56;5022247;28;20429;-79
2023/09/23 10:54:37;;;;;;;1.05;0.40;;;;;;;-141.50;100.00;63355.56;5022047;28;20143;-79
2023/09/23 10:57:03;;;;;;;0.80;0.55;;;;;;;-141.50;100.00;63355.56;5036773;28;20049;-79
2023/09/23 10:59:31;;;;;;;0.77;0.32;;;;;;;-141.50;100.00;63355.56;5025296;28;20100;-80
2023/09/23 11:01:58;;;;;;;0.50;0.40;;;;;;;-141.50;100.00;63355.56;5043004;28;20053;-80
2023/09/23 11:04:25;;;;;;;2.17;0.40;;;;;;;-141.50;100.00;63355.56;5013448;28;20038;-79
2023/09/23 11:06:52;;;;;;;0.55;0.30;;;;;;;-141.50;100.00;63355.56;5001742;28;20057;-79
2023/09/23 11:09:21;;;;;;;2.85;0.30;;;;;;;-141.50;100.00;63355.56;5021651;28;20546;-78
2023/09/23 11:11:47;;;;;;;0.50;0.30;;;;;;;-141.50;100.00;63355.56;5023553;28;20052;-79
2023/09/23 11:14:14;;;;;;;0.63;0.32;;;;;;;-141.50;100.00;63355.56;5034230;28;20049;-79
2023/09/23 11:16:43;;;;;;;0.90;0.40;;;;;;;-141.50;100.00;63355.56;5032685;28;20068;-79